createdAt,value
2023-03-18T00:00:23.509Z,10.00
2023-03-18T00:01:26.928Z,8.25
2023-03-18T00:02:28.827Z,8.75
2023-03-18T00:03:31.651Z,9.00
2023-03-18T00:04:33.550Z,9.00
2023-03-18T00:05:36.119Z,11.50
2023-03-18T00:06:38.218Z,10.25
2023-03-18T00:07:43.667Z,9.50
2023-03-18T00:08:47.188Z,9.00
2023-03-18T00:09:50.577Z,9.00
2023-03-18T00:10:52.157Z,9.00
2023-03-18T00:11:56.565Z,8.25
2023-03-18T00:12:59.546Z,11.00
2023-03-18T00:14:02.121Z,10.00
2023-03-18T00:15:04.423Z,9.00
2023-03-18T00:16:10.258Z,8.25
2023-03-18T00:17:11.877Z,8.00
2023-03-18T00:18:14.463Z,10.50
2023-03-18T00:19:16.119Z,8.00
2023-03-18T00:20:28.729Z,7.00
2023-03-18T00:21:31.366Z,7.25
2023-03-18T00:22:33.310Z,9.00
2023-03-18T00:23:36.269Z,9.50
2023-03-18T00:24:37.860Z,8.75
2023-03-18T00:25:40.535Z,8.00
2023-03-18T00:26:42.487Z,8.00
2023-03-18T00:27:45.047Z,8.00
2023-03-18T00:28:46.950Z,8.25
2023-03-18T00:29:49.534Z,8.50
2023-03-18T00:30:51.468Z,8.00
2023-03-18T00:31:55.702Z,8.00
2023-03-18T00:32:57.896Z,6.75
2023-03-18T00:34:00.977Z,6.75
2023-03-18T00:35:03.949Z,7.75
2023-03-18T00:36:09.892Z,8.00
2023-03-18T00:37:18.739Z,8.00
2023-03-18T00:38:21.636Z,8.00
2023-03-18T00:39:26.391Z,5.00
2023-03-18T00:40:42.886Z,7.25
2023-03-18T00:41:44.677Z,7.75
2023-03-18T00:42:50.439Z,8.50
2023-03-18T00:43:52.857Z,8.75
2023-03-18T00:44:55.590Z,8.00
2023-03-18T00:45:57.742Z,8.00
2023-03-18T00:47:01.728Z,5.50
2023-03-18T00:48:03.795Z,6.00
2023-03-18T00:49:07.937Z,7.00
2023-03-18T00:50:10.778Z,6.75
2023-03-18T00:51:14.176Z,9.00
2023-03-18T00:52:15.801Z,6.75
2023-03-18T00:53:18.721Z,6.75
2023-03-18T00:54:20.944Z,6.75
2023-03-18T00:55:23.559Z,6.50
2023-03-18T00:56:26.458Z,5.75
2023-03-18T00:57:29.344Z,8.00
2023-03-18T00:58:31.565Z,7.50
2023-03-18T00:59:34.232Z,6.25
2023-03-18T01:00:36.069Z,5.75
2023-03-18T01:01:38.879Z,5.50
2023-03-18T01:02:42.990Z,8.00
2023-03-18T01:03:46.095Z,8.00
2023-03-18T01:04:47.750Z,9.00
2023-03-18T01:05:51.161Z,10.75
2023-03-18T01:06:52.770Z,9.00
2023-03-18T01:07:55.348Z,6.25
2023-03-18T01:08:58.466Z,7.00
2023-03-18T01:10:01.195Z,8.00
2023-03-18T01:11:03.068Z,8.00
2023-03-18T01:12:06.496Z,5.25
2023-03-18T01:13:08.096Z,8.00
2023-03-18T01:14:10.664Z,8.25
2023-03-18T01:15:13.231Z,9.00
2023-03-18T01:16:16.842Z,9.00
2023-03-18T01:17:18.462Z,8.50
2023-03-18T01:18:22.400Z,8.50
2023-03-18T01:19:26.109Z,6.25
2023-03-18T01:20:29.334Z,8.00
2023-03-18T01:21:32.007Z,8.50
2023-03-18T01:22:34.568Z,9.50
2023-03-18T01:23:36.494Z,9.00
2023-03-18T01:24:39.366Z,8.75
2023-03-18T01:25:41.289Z,9.25
2023-03-18T01:26:44.524Z,10.50
2023-03-18T01:27:46.151Z,10.75
2023-03-18T01:28:48.775Z,9.50
2023-03-18T01:29:50.397Z,8.00
2023-03-18T01:30:53.240Z,8.00
2023-03-18T01:31:55.027Z,10.75
2023-03-18T01:32:57.816Z,9.00
2023-03-18T01:34:02.053Z,8.75
2023-03-18T01:35:05.633Z,10.00
2023-03-18T01:36:08.304Z,11.00
2023-03-18T01:37:11.590Z,9.00
2023-03-18T01:38:13.308Z,9.00
2023-03-18T01:39:17.439Z,10.00
2023-03-18T01:40:19.409Z,9.50
2023-03-18T01:41:22.142Z,10.75
2023-03-18T01:42:23.728Z,9.00
2023-03-18T01:43:28.092Z,10.25
2023-03-18T01:44:30.801Z,9.00
2023-03-18T01:45:35.360Z,8.00
2023-03-18T01:46:38.360Z,7.00
2023-03-18T01:47:40.928Z,7.25
2023-03-18T01:48:42.907Z,6.00
2023-03-18T01:49:48.406Z,6.75
2023-03-18T01:50:52.325Z,6.00
2023-03-18T01:51:56.723Z,7.00
2023-03-18T01:53:00.680Z,6.00
2023-03-18T01:54:03.489Z,6.00
2023-03-18T01:55:10.455Z,7.00
2023-03-18T01:56:12.297Z,6.00
2023-03-18T01:57:17.389Z,6.00
2023-03-18T01:58:21.440Z,6.00
2023-03-18T01:59:26.349Z,7.25
2023-03-18T02:00:28.485Z,8.00
2023-03-18T02:01:33.967Z,6.25
2023-03-18T02:02:35.942Z,8.00
2023-03-18T02:03:38.550Z,9.00
2023-03-18T02:04:42.205Z,8.75
2023-03-18T02:05:46.117Z,7.75
2023-03-18T02:06:47.741Z,7.50
2023-03-18T02:07:51.411Z,7.00
2023-03-18T02:08:53.020Z,7.75
2023-03-18T02:09:55.961Z,6.00
2023-03-18T02:10:57.550Z,8.00
2023-03-18T02:12:00.119Z,6.25
2023-03-18T02:13:03.838Z,6.00
2023-03-18T02:14:06.981Z,6.25
2023-03-18T02:15:11.422Z,7.50
2023-03-18T02:16:15.747Z,6.00
2023-03-18T02:17:19.338Z,5.25
2023-03-18T02:18:24.642Z,6.00
2023-03-18T02:19:33.752Z,5.50
2023-03-18T02:20:52.683Z,5.50
2023-03-18T02:21:56.643Z,8.00
2023-03-18T02:23:01.901Z,7.00
2023-03-18T02:24:09.448Z,6.75
2023-03-18T02:25:18.084Z,6.75
2023-03-18T02:26:23.008Z,6.75
2023-03-18T02:27:27.562Z,6.75
2023-03-18T02:28:29.701Z,5.00
2023-03-18T02:29:33.143Z,5.00
2023-03-18T02:30:36.461Z,5.75
2023-03-18T02:31:39.064Z,6.00
2023-03-18T02:32:40.678Z,7.00
2023-03-18T02:33:43.648Z,6.00
2023-03-18T02:34:45.583Z,8.00
2023-03-18T02:35:48.636Z,8.00
2023-03-18T02:36:50.817Z,8.00
2023-03-18T02:37:53.406Z,8.00
2023-03-18T02:38:55.174Z,8.25
2023-03-18T02:40:12.444Z,6.00
2023-03-18T02:41:18.819Z,6.75
2023-03-18T02:42:37.592Z,5.00
2023-03-18T02:43:39.204Z,5.00
2023-03-18T02:44:43.281Z,5.00
2023-03-18T02:45:48.753Z,5.00
2023-03-18T02:46:55.226Z,5.25
2023-03-18T02:47:57.575Z,5.00
2023-03-18T02:49:00.915Z,5.00
2023-03-18T02:50:03.737Z,5.25
2023-03-18T02:51:07.263Z,5.00
2023-03-18T02:52:09.886Z,4.00
2023-03-18T02:53:12.818Z,5.50
2023-03-18T02:54:17.216Z,6.00
2023-03-18T02:55:19.939Z,4.00
2023-03-18T02:56:21.686Z,5.00
2023-03-18T02:57:24.304Z,4.25
2023-03-18T02:58:27.271Z,5.00
2023-03-18T02:59:29.992Z,4.50
2023-03-18T03:00:31.875Z,5.00
2023-03-18T03:01:35.125Z,4.00
2023-03-18T03:02:37.096Z,5.00
2023-03-18T03:03:40.162Z,5.25
2023-03-18T03:04:43.289Z,5.00
2023-03-18T03:05:45.924Z,4.00
2023-03-18T03:06:47.631Z,5.00
2023-03-18T03:07:50.236Z,5.00
2023-03-18T03:08:51.880Z,5.25
2023-03-18T03:09:54.537Z,5.00
2023-03-18T03:10:56.364Z,5.00
2023-03-18T03:11:58.967Z,5.00
2023-03-18T03:13:00.757Z,5.75
2023-03-18T03:14:04.914Z,5.00
2023-03-18T03:15:08.024Z,6.00
2023-03-18T03:16:10.757Z,5.00
2023-03-18T03:17:12.455Z,5.75
2023-03-18T03:18:15.375Z,5.25
2023-03-18T03:19:18.037Z,5.00
2023-03-18T03:20:19.808Z,6.00
2023-03-18T03:21:22.439Z,7.00
2023-03-18T03:22:24.103Z,6.50
2023-03-18T03:23:27.387Z,4.50
2023-03-18T03:24:30.332Z,5.75
2023-03-18T03:25:32.494Z,4.75
2023-03-18T03:26:35.362Z,6.00
2023-03-18T03:27:37.973Z,5.00
2023-03-18T03:28:40.590Z,4.75
2023-03-18T03:29:43.612Z,4.75
2023-03-18T03:30:46.401Z,5.00
2023-03-18T03:31:48.041Z,5.75
2023-03-18T03:32:50.782Z,6.00
2023-03-18T03:33:52.608Z,4.00
2023-03-18T03:34:55.288Z,6.00
2023-03-18T03:35:58.184Z,6.00
2023-03-18T03:37:00.880Z,6.00
2023-03-18T03:38:03.034Z,5.75
2023-03-18T03:39:06.116Z,5.25
2023-03-18T03:40:09.012Z,5.25
2023-03-18T03:41:11.790Z,5.75
2023-03-18T03:42:13.412Z,5.25
2023-03-18T03:43:16.159Z,6.00
2023-03-18T03:44:17.787Z,6.00
2023-03-18T03:45:21.882Z,5.00
2023-03-18T03:46:23.545Z,5.50
2023-03-18T03:47:26.222Z,5.00
2023-03-18T03:48:28.015Z,5.00
2023-03-18T03:49:30.625Z,6.00
2023-03-18T03:50:32.508Z,5.00
2023-03-18T03:51:35.241Z,6.00
2023-03-18T03:52:37.262Z,6.00
2023-03-18T03:53:40.739Z,6.00
2023-03-18T03:54:42.545Z,6.00
2023-03-18T03:55:45.489Z,6.00
2023-03-18T03:56:47.894Z,6.25
2023-03-18T03:57:51.214Z,6.00
2023-03-18T03:58:53.463Z,6.00
2023-03-18T03:59:56.343Z,6.00
2023-03-18T04:00:59.801Z,5.00
2023-03-18T04:02:03.132Z,8.00
2023-03-18T04:03:04.791Z,5.75
2023-03-18T04:04:07.480Z,5.75
2023-03-18T04:05:10.211Z,6.25
2023-03-18T04:06:13.320Z,5.00
2023-03-18T04:07:15.311Z,6.00
2023-03-18T04:08:17.939Z,6.25
2023-03-18T04:09:19.593Z,6.25
2023-03-18T04:10:22.530Z,6.00
2023-03-18T04:11:24.264Z,6.00
2023-03-18T04:12:26.909Z,5.25
2023-03-18T04:13:29.068Z,5.00
2023-03-18T04:14:31.694Z,6.00
2023-03-18T04:15:33.327Z,6.00
2023-03-18T04:16:37.492Z,5.00
2023-03-18T04:17:39.188Z,5.00
2023-03-18T04:18:41.819Z,5.00
2023-03-18T04:19:43.446Z,5.00
2023-03-18T04:20:46.200Z,6.00
2023-03-18T04:21:47.888Z,5.50
2023-03-18T04:22:50.513Z,7.00
2023-03-18T04:23:52.156Z,6.00
2023-03-18T04:24:54.742Z,9.00
2023-03-18T04:25:56.377Z,6.00
2023-03-18T04:26:59.179Z,6.00
2023-03-18T04:28:00.796Z,6.00
2023-03-18T04:29:03.653Z,8.00
2023-03-18T04:30:06.209Z,6.00
2023-03-18T04:31:08.916Z,7.75
2023-03-18T04:32:12.116Z,8.00
2023-03-18T04:33:14.793Z,6.25
2023-03-18T04:34:16.447Z,8.00
2023-03-18T04:35:19.605Z,6.00
2023-03-18T04:36:21.273Z,6.00
2023-03-18T04:37:24.044Z,5.00
2023-03-18T04:38:25.815Z,6.00
2023-03-18T04:39:28.416Z,6.00
2023-03-18T04:40:30.466Z,5.00
2023-03-18T04:41:33.389Z,6.00
2023-03-18T04:42:35.363Z,6.00
2023-03-18T04:43:37.959Z,6.00
2023-03-18T04:44:39.711Z,6.00
2023-03-18T04:45:42.324Z,6.00
2023-03-18T04:46:44.031Z,5.00
2023-03-18T04:47:48.152Z,5.50
2023-03-18T04:48:49.769Z,6.00
2023-03-18T04:49:52.389Z,6.00
2023-03-18T04:50:54.724Z,5.00
2023-03-18T04:51:57.331Z,5.00
2023-03-18T04:53:00.141Z,6.00
2023-03-18T04:54:02.768Z,5.00
2023-03-18T04:55:05.217Z,6.00
2023-03-18T04:56:08.768Z,5.25
2023-03-18T04:57:11.096Z,5.75
2023-03-18T04:58:13.726Z,5.75
2023-03-18T04:59:15.405Z,5.75
2023-03-18T05:00:21.318Z,7.25
2023-03-18T05:01:23.295Z,6.00
2023-03-18T05:02:25.958Z,7.75
2023-03-18T05:03:29.011Z,5.50
2023-03-18T05:04:31.654Z,8.00
2023-03-18T05:05:36.080Z,6.00
2023-03-18T05:06:41.220Z,6.25
2023-03-18T05:07:43.225Z,6.00
2023-03-18T05:08:46.003Z,6.00
2023-03-18T05:09:48.622Z,8.00
2023-03-18T05:10:50.406Z,6.00
2023-03-18T05:11:53.082Z,6.00
2023-03-18T05:12:55.169Z,7.25
2023-03-18T05:13:57.974Z,6.00
2023-03-18T05:14:59.607Z,5.00
2023-03-18T05:16:02.410Z,6.00
2023-03-18T05:17:04.306Z,6.00
2023-03-18T05:18:06.965Z,5.00
2023-03-18T05:19:10.690Z,5.75
2023-03-18T05:20:14.629Z,6.00
2023-03-18T05:21:16.426Z,6.75
2023-03-18T05:22:19.995Z,6.00
2023-03-18T05:23:22.502Z,6.00
2023-03-18T05:24:25.150Z,8.00
2023-03-18T05:25:27.033Z,8.25
2023-03-18T05:26:29.697Z,6.00
2023-03-18T05:27:31.445Z,6.00
2023-03-18T05:28:34.119Z,9.00
2023-03-18T05:29:35.822Z,14.25
2023-03-18T05:30:40.349Z,8.50
2023-03-18T05:31:42.692Z,8.00
2023-03-18T05:32:45.431Z,7.00
2023-03-18T05:33:47.786Z,6.75
2023-03-18T05:34:52.665Z,8.00
2023-03-18T05:35:54.333Z,7.75
2023-03-18T05:36:57.628Z,8.00
2023-03-18T05:37:59.273Z,8.00
2023-03-18T05:39:01.907Z,6.75
2023-03-18T05:40:04.205Z,7.50
2023-03-18T05:41:07.186Z,9.00
2023-03-18T05:42:08.877Z,8.75
2023-03-18T05:43:11.472Z,8.00
2023-03-18T05:44:13.129Z,8.75
2023-03-18T05:45:15.918Z,10.75
2023-03-18T05:46:18.053Z,8.00
2023-03-18T05:47:20.674Z,8.50
2023-03-18T05:48:22.314Z,9.00
2023-03-18T05:49:24.917Z,11.00
2023-03-18T05:50:31.355Z,10.25
2023-03-18T05:51:33.955Z,9.00
2023-03-18T05:52:36.256Z,11.00
2023-03-18T05:53:39.343Z,8.25
2023-03-18T05:54:41.750Z,10.00
2023-03-18T05:55:44.712Z,11.50
2023-03-18T05:56:46.398Z,12.25
2023-03-18T05:57:49.503Z,9.00
2023-03-18T05:58:51.985Z,9.25
2023-03-18T05:59:54.603Z,9.00
2023-03-18T06:00:56.283Z,11.00
2023-03-18T06:01:58.940Z,9.00
2023-03-18T06:03:01.430Z,11.00
2023-03-18T06:04:06.090Z,9.00
2023-03-18T06:05:08.693Z,11.00
2023-03-18T06:06:12.747Z,11.75
2023-03-18T06:07:15.175Z,9.00
2023-03-18T06:08:17.833Z,11.00
2023-03-18T06:09:19.457Z,11.25
2023-03-18T06:10:23.619Z,11.25
2023-03-18T06:11:25.319Z,11.00
2023-03-18T06:12:28.520Z,11.00
2023-03-18T06:13:30.202Z,11.00
2023-03-18T06:14:32.805Z,9.00
2023-03-18T06:15:34.550Z,9.00
2023-03-18T06:16:37.410Z,8.25
2023-03-18T06:17:39.268Z,7.75
2023-03-18T06:18:41.949Z,8.00
2023-03-18T06:19:44.960Z,8.25
2023-03-18T06:20:47.715Z,10.00
2023-03-18T06:21:51.448Z,9.00
2023-03-18T06:22:54.161Z,9.00
2023-03-18T06:23:56.480Z,8.50
2023-03-18T06:24:59.159Z,8.00
2023-03-18T06:26:00.915Z,8.00
2023-03-18T06:27:03.721Z,6.50
2023-03-18T06:28:05.394Z,7.50
2023-03-18T06:29:08.100Z,7.50
2023-03-18T06:30:10.884Z,9.00
2023-03-18T06:31:13.850Z,8.00
2023-03-18T06:32:15.649Z,7.25
2023-03-18T06:33:18.273Z,6.00
2023-03-18T06:34:20.509Z,8.00
2023-03-18T06:35:26.504Z,6.50
2023-03-18T06:36:28.160Z,7.00
2023-03-18T06:37:32.524Z,7.25
2023-03-18T06:38:34.634Z,8.00
2023-03-18T06:39:37.640Z,8.00
2023-03-18T06:40:40.736Z,6.25
2023-03-18T06:41:42.403Z,6.00
2023-03-18T06:42:45.679Z,8.00
2023-03-18T06:43:50.492Z,6.75
2023-03-18T06:44:53.156Z,6.00
2023-03-18T06:45:54.885Z,8.00
2023-03-18T06:46:57.596Z,6.00
2023-03-18T06:48:00.901Z,7.25
2023-03-18T06:49:03.693Z,6.25
2023-03-18T06:50:05.847Z,8.00
2023-03-18T06:51:08.507Z,5.25
2023-03-18T06:52:10.171Z,6.25
2023-03-18T06:53:14.219Z,6.00
2023-03-18T06:54:16.779Z,8.00
2023-03-18T06:55:19.532Z,7.75
2023-03-18T06:56:22.090Z,5.00
2023-03-18T06:57:24.738Z,6.00
2023-03-18T06:58:27.181Z,7.50
2023-03-18T06:59:29.779Z,6.50
2023-03-18T07:00:31.930Z,6.00
2023-03-18T07:01:34.743Z,6.00
2023-03-18T07:02:39.360Z,6.00
2023-03-18T07:03:42.396Z,9.00
2023-03-18T07:04:44.105Z,6.25
2023-03-18T07:05:47.145Z,6.00
2023-03-18T07:06:48.770Z,5.50
2023-03-18T07:07:51.802Z,8.00
2023-03-18T07:08:55.201Z,7.50
2023-03-18T07:09:57.799Z,6.00
2023-03-18T07:10:59.491Z,6.00
2023-03-18T07:12:02.604Z,6.00
2023-03-18T07:13:04.736Z,11.50
2023-03-18T07:14:07.913Z,9.25
2023-03-18T07:15:11.738Z,9.75
2023-03-18T07:16:14.403Z,8.00
2023-03-18T07:17:16.071Z,8.00
2023-03-18T07:18:18.676Z,9.00
2023-03-18T07:19:20.391Z,10.00
2023-03-18T07:20:23.609Z,8.75
2023-03-18T07:21:25.315Z,8.50
2023-03-18T07:22:29.137Z,7.75
2023-03-18T07:23:32.233Z,8.50
2023-03-18T07:24:37.592Z,13.75
2023-03-18T07:25:39.223Z,11.75
2023-03-18T07:26:42.214Z,16.25
2023-03-18T07:27:43.840Z,10.00
2023-03-18T07:28:46.499Z,7.25
2023-03-18T07:29:48.281Z,6.00
2023-03-18T07:30:53.997Z,7.00
2023-03-18T07:31:55.835Z,7.25
2023-03-18T07:32:58.670Z,7.25
2023-03-18T07:34:00.306Z,7.25
2023-03-18T07:35:04.216Z,8.25
2023-03-18T07:36:06.181Z,6.75
2023-03-18T07:37:08.935Z,6.00
2023-03-18T07:38:10.665Z,9.00
2023-03-18T07:39:13.275Z,7.00
2023-03-18T07:40:16.857Z,8.00
2023-03-18T07:41:19.476Z,9.00
2023-03-18T07:42:21.097Z,7.00
2023-03-18T07:43:23.695Z,8.00
2023-03-18T07:44:26.781Z,6.50
2023-03-18T07:45:29.208Z,8.50
2023-03-18T07:46:31.844Z,7.00
2023-03-18T07:47:33.544Z,7.00
2023-03-18T07:48:36.140Z,8.50
2023-03-18T07:49:37.770Z,8.50
2023-03-18T07:50:40.889Z,7.00
2023-03-18T07:51:42.522Z,7.00
2023-03-18T07:52:45.180Z,5.75
2023-03-18T07:53:47.558Z,8.50
2023-03-18T07:54:50.415Z,7.50
2023-03-18T07:55:53.433Z,9.50
2023-03-18T07:56:56.729Z,7.50
2023-03-18T07:57:58.601Z,7.25
2023-03-18T07:59:01.202Z,6.25
2023-03-18T08:00:05.086Z,6.00
2023-03-18T08:01:07.841Z,7.00
2023-03-18T08:02:11.578Z,6.00
2023-03-18T08:03:14.874Z,10.00
2023-03-18T08:04:16.645Z,6.00
2023-03-18T08:05:20.085Z,8.00
2023-03-18T08:06:22.811Z,7.00
2023-03-18T08:07:25.435Z,6.75
2023-03-18T08:08:27.936Z,8.00
2023-03-18T08:09:30.575Z,7.00
2023-03-18T08:10:32.216Z,7.25
2023-03-18T08:11:37.038Z,6.25
2023-03-18T08:12:52.218Z,7.00
2023-03-18T08:13:55.974Z,7.00
2023-03-18T08:14:59.769Z,7.25
2023-03-18T08:16:02.408Z,7.00
2023-03-18T08:17:05.052Z,7.00
2023-03-18T08:18:09.342Z,8.00
2023-03-18T08:19:12.187Z,8.00
2023-03-18T08:20:14.285Z,8.25
2023-03-18T08:21:16.917Z,9.50
2023-03-18T08:22:19.337Z,6.50
2023-03-18T08:23:21.965Z,8.00
2023-03-18T08:24:24.489Z,7.00
2023-03-18T08:25:27.189Z,7.00
2023-03-18T08:26:28.835Z,7.75
2023-03-18T08:27:33.095Z,7.00
2023-03-18T08:28:34.847Z,6.75
2023-03-18T08:29:37.464Z,6.00
2023-03-18T08:30:39.187Z,5.50
2023-03-18T08:31:42.893Z,6.00
2023-03-18T08:32:44.644Z,5.25
2023-03-18T08:33:47.489Z,6.00
2023-03-18T08:34:49.136Z,7.00
2023-03-18T08:35:52.010Z,6.75
2023-03-18T08:36:53.744Z,6.50
2023-03-18T08:37:57.168Z,5.00
2023-03-18T08:39:00.022Z,6.00
2023-03-18T08:40:02.010Z,6.00
2023-03-18T08:41:04.859Z,6.00
2023-03-18T08:42:07.007Z,7.00
2023-03-18T08:43:11.055Z,6.00
2023-03-18T08:44:12.700Z,5.75
2023-03-18T08:45:16.061Z,6.50
2023-03-18T08:46:18.673Z,6.00
2023-03-18T08:47:21.394Z,5.25
2023-03-18T08:48:23.357Z,6.00
2023-03-18T08:49:26.245Z,4.75
2023-03-18T08:50:29.572Z,4.75
2023-03-18T08:51:32.559Z,5.75
2023-03-18T08:52:34.226Z,4.75
2023-03-18T08:53:37.362Z,4.75
2023-03-18T08:54:40.332Z,5.75
2023-03-18T08:55:41.961Z,6.00
2023-03-18T08:56:44.573Z,5.50
2023-03-18T08:57:46.189Z,4.00
2023-03-18T08:58:51.112Z,4.00
2023-03-18T08:59:53.198Z,4.00
2023-03-18T09:00:56.176Z,5.25
2023-03-18T09:01:57.830Z,4.00
2023-03-18T09:03:00.662Z,5.25
2023-03-18T09:04:02.355Z,3.00
2023-03-18T09:05:05.648Z,3.75
2023-03-18T09:06:07.514Z,4.00
2023-03-18T09:07:10.290Z,5.25
2023-03-18T09:08:12.371Z,4.75
2023-03-18T09:09:15.587Z,4.75
2023-03-18T09:10:18.310Z,6.00
2023-03-18T09:11:20.993Z,4.75
2023-03-18T09:12:23.174Z,4.75
2023-03-18T09:13:25.781Z,4.75
2023-03-18T09:14:28.897Z,3.00
2023-03-18T09:15:31.754Z,4.00
2023-03-18T09:16:33.673Z,6.00
2023-03-18T09:17:53.566Z,5.25
2023-03-18T09:18:59.935Z,6.00
2023-03-18T09:20:01.605Z,5.00
2023-03-18T09:21:04.891Z,4.75
2023-03-18T09:22:06.921Z,4.75
2023-03-18T09:23:09.768Z,5.00
2023-03-18T09:24:11.586Z,5.25
2023-03-18T09:25:14.502Z,5.25
2023-03-18T09:26:16.152Z,3.00
2023-03-18T09:27:18.754Z,3.00
2023-03-18T09:28:20.559Z,4.00
2023-03-18T09:29:23.861Z,3.00
2023-03-18T09:30:28.031Z,2.25
2023-03-18T09:31:30.620Z,3.50
2023-03-18T09:32:33.288Z,4.75
2023-03-18T09:33:36.978Z,3.00
2023-03-18T09:34:39.597Z,3.00
2023-03-18T09:35:41.328Z,4.75
2023-03-18T09:36:50.855Z,3.00
2023-03-18T09:37:53.876Z,4.75
2023-03-18T09:38:56.524Z,3.00
2023-03-18T09:39:58.434Z,3.00
2023-03-18T09:41:05.878Z,3.00
2023-03-18T09:42:15.869Z,3.00
2023-03-18T09:43:25.621Z,4.00
2023-03-18T09:44:30.644Z,4.00
2023-03-18T09:45:35.906Z,3.00
2023-03-18T09:46:46.507Z,3.75
2023-03-18T09:48:31.791Z,3.00
2023-03-18T09:49:47.491Z,5.00
2023-03-18T09:50:51.128Z,5.00
2023-03-18T09:51:58.648Z,4.00
2023-03-18T09:53:06.698Z,4.75
2023-03-18T09:54:10.692Z,4.00
2023-03-18T09:55:17.830Z,3.00
2023-03-18T09:56:22.271Z,2.75
2023-03-18T09:57:27.606Z,3.00
2023-03-18T09:58:32.917Z,4.50
2023-03-18T09:59:38.135Z,3.50
2023-03-18T10:00:42.468Z,3.00
2023-03-18T10:01:44.320Z,3.25
2023-03-18T10:02:48.010Z,3.00
2023-03-18T10:03:51.107Z,3.00
2023-03-18T10:04:55.197Z,2.75
2023-03-18T10:05:58.741Z,3.00
2023-03-18T10:07:04.119Z,3.00
2023-03-18T10:08:08.095Z,3.00
2023-03-18T10:09:14.976Z,2.00
2023-03-18T10:10:20.900Z,3.00
2023-03-18T10:11:25.088Z,3.00
2023-03-18T10:12:31.646Z,2.50
2023-03-18T10:13:36.419Z,2.00
2023-03-18T10:14:41.357Z,3.00
2023-03-18T10:15:46.077Z,3.50
2023-03-18T10:16:56.923Z,3.00
2023-03-18T10:18:01.040Z,3.00
2023-03-18T10:19:03.433Z,3.00
2023-03-18T10:20:14.924Z,3.75
2023-03-18T10:21:21.667Z,2.50
2023-03-18T10:22:33.977Z,3.25
2023-03-18T10:23:42.138Z,3.00
2023-03-18T10:24:47.653Z,3.00
2023-03-18T10:25:52.663Z,3.00
2023-03-18T10:26:58.767Z,2.50
2023-03-18T10:28:25.930Z,2.00
2023-03-18T10:29:31.990Z,2.00
2023-03-18T10:30:47.233Z,3.00
2023-03-18T10:31:56.068Z,2.00
2023-03-18T10:33:01.688Z,2.75
2023-03-18T10:34:06.626Z,2.00
2023-03-18T10:35:15.500Z,2.75
2023-03-18T10:36:19.406Z,2.00
2023-03-18T10:37:26.495Z,2.00
2023-03-18T10:38:29.472Z,4.00
2023-03-18T10:39:33.563Z,3.00
2023-03-18T10:40:36.634Z,3.00
2023-03-18T10:41:39.218Z,2.00
2023-03-18T10:42:41.795Z,2.00
2023-03-18T10:43:44.393Z,2.50
2023-03-18T10:44:47.350Z,2.00
2023-03-18T10:45:55.008Z,2.00
2023-03-18T10:46:59.851Z,2.00
2023-03-18T10:48:05.996Z,1.50
2023-03-18T10:49:11.329Z,2.00
2023-03-18T10:50:17.224Z,1.75
2023-03-18T10:51:21.420Z,2.00
2023-03-18T10:52:28.869Z,2.00
2023-03-18T10:53:32.940Z,2.00
2023-03-18T10:54:36.588Z,2.00
2023-03-18T10:55:40.812Z,2.00
2023-03-18T10:56:43.860Z,2.00
2023-03-18T10:57:45.812Z,2.00
2023-03-18T10:58:48.823Z,2.00
2023-03-18T10:59:51.377Z,2.00
2023-03-18T11:00:55.384Z,3.00
2023-03-18T11:01:59.679Z,2.00
2023-03-18T11:03:02.565Z,2.00
2023-03-18T11:04:06.598Z,1.00
2023-03-18T11:05:17.570Z,2.00
2023-03-18T11:06:21.597Z,1.00
2023-03-18T11:07:25.910Z,3.00
2023-03-18T11:08:29.927Z,2.00
2023-03-18T11:09:33.970Z,3.25
2023-03-18T11:10:36.992Z,2.00
2023-03-18T11:11:41.134Z,3.75
2023-03-18T11:12:43.515Z,2.00
2023-03-18T11:13:52.798Z,2.75
2023-03-18T11:14:56.264Z,2.00
2023-03-18T11:15:59.713Z,2.00
2023-03-18T11:17:06.165Z,2.00
2023-03-18T11:18:12.074Z,2.25
2023-03-18T11:19:28.969Z,2.50
2023-03-18T11:20:37.419Z,2.00
2023-03-18T11:21:39.265Z,1.75
2023-03-18T11:22:45.097Z,2.00
2023-03-18T11:23:56.373Z,3.00
2023-03-18T11:25:03.037Z,3.00
2023-03-18T11:26:05.470Z,2.00
2023-03-18T11:27:25.579Z,2.25
2023-03-18T11:28:30.015Z,3.00
2023-03-18T11:29:33.311Z,2.00
2023-03-18T11:30:36.981Z,2.25
2023-03-18T11:31:51.149Z,2.00
2023-03-18T11:32:56.139Z,2.00
2023-03-18T11:33:58.846Z,2.00
2023-03-18T11:35:02.391Z,2.25
2023-03-18T11:36:05.942Z,2.00
2023-03-18T11:37:12.990Z,2.25
2023-03-18T11:38:15.627Z,2.00
2023-03-18T11:39:19.313Z,1.75
2023-03-18T11:40:25.818Z,1.00
2023-03-18T11:41:27.772Z,1.00
2023-03-18T11:42:31.348Z,1.00
2023-03-18T11:43:33.069Z,1.00
2023-03-18T11:44:35.931Z,2.00
2023-03-18T11:45:46.739Z,2.00
2023-03-18T11:46:52.311Z,2.00
2023-03-18T11:47:54.099Z,1.00
2023-03-18T11:48:59.114Z,1.00
2023-03-18T11:50:01.183Z,1.25
2023-03-18T11:51:12.224Z,1.50
2023-03-18T11:52:28.564Z,2.00
2023-03-18T11:53:36.057Z,1.00
2023-03-18T11:55:02.384Z,2.00
2023-03-18T11:56:08.327Z,2.00
2023-03-18T11:57:11.802Z,1.00
2023-03-18T11:58:37.111Z,2.00
2023-03-18T11:59:52.733Z,2.00
2023-03-18T12:00:56.873Z,2.00
2023-03-18T12:02:08.503Z,2.00
2023-03-18T12:03:47.477Z,1.00
2023-03-18T12:05:05.344Z,2.00
2023-03-18T12:06:13.050Z,1.00
2023-03-18T12:07:26.554Z,2.00
2023-03-18T12:08:34.685Z,2.00
2023-03-18T12:09:38.503Z,2.00
2023-03-18T12:10:48.146Z,2.75
2023-03-18T12:11:59.756Z,1.75
2023-03-18T12:13:09.320Z,1.00
2023-03-18T12:14:14.051Z,2.00
2023-03-18T12:15:21.912Z,2.00
2023-03-18T12:16:32.592Z,1.00
2023-03-18T12:17:43.802Z,1.50
2023-03-18T12:19:04.424Z,1.25
2023-03-18T12:20:34.221Z,2.00
2023-03-18T12:22:10.051Z,2.00
2023-03-18T12:23:19.812Z,1.00
2023-03-18T12:24:32.265Z,1.50
2023-03-18T12:25:52.212Z,2.00
2023-03-18T12:26:58.399Z,1.00
2023-03-18T12:28:02.146Z,1.75
2023-03-18T12:29:13.476Z,1.75
2023-03-18T12:30:34.098Z,1.75
2023-03-18T12:31:45.370Z,1.00
2023-03-18T12:32:49.762Z,1.00
2023-03-18T12:33:56.307Z,1.25
2023-03-18T12:35:06.453Z,1.75
2023-03-18T12:36:14.203Z,2.00
2023-03-18T12:37:25.679Z,1.00
2023-03-18T12:38:41.823Z,2.00
2023-03-18T12:40:01.021Z,1.50
2023-03-18T12:41:06.909Z,1.00
2023-03-18T12:42:12.011Z,2.00
2023-03-18T12:43:23.465Z,2.00
2023-03-18T12:44:33.436Z,1.50
2023-03-18T12:45:36.459Z,1.00
2023-03-18T12:46:41.388Z,1.75
2023-03-18T12:47:45.585Z,1.00
2023-03-18T12:48:51.668Z,1.50
2023-03-18T12:49:56.110Z,2.00
2023-03-18T12:50:59.219Z,1.75
2023-03-18T12:52:03.467Z,1.00
2023-03-18T12:53:10.584Z,2.00
2023-03-18T12:54:16.204Z,1.00
2023-03-18T12:55:21.995Z,1.00
2023-03-18T12:56:24.336Z,1.00
2023-03-18T12:57:30.692Z,1.00
2023-03-18T12:58:37.891Z,1.00
2023-03-18T12:59:42.268Z,2.00
2023-03-18T13:00:47.869Z,1.00
2023-03-18T13:01:53.590Z,1.00
2023-03-18T13:03:00.043Z,2.00
2023-03-18T13:04:06.745Z,1.00
2023-03-18T13:05:16.886Z,1.25
2023-03-18T13:06:21.874Z,1.75
2023-03-18T13:07:26.404Z,2.00
2023-03-18T13:08:54.222Z,1.00
2023-03-18T13:09:59.670Z,1.75
2023-03-18T13:11:05.908Z,1.00
2023-03-18T13:12:10.197Z,1.00
2023-03-18T13:13:13.098Z,1.00
2023-03-18T13:14:18.133Z,1.00
2023-03-18T13:15:24.567Z,1.00
2023-03-18T13:16:26.612Z,1.25
2023-03-18T13:17:31.435Z,1.00
2023-03-18T13:18:37.097Z,2.00
2023-03-18T13:19:41.341Z,1.00
2023-03-18T13:20:43.948Z,2.00
2023-03-18T13:21:46.727Z,1.75
2023-03-18T13:23:10.766Z,1.00
2023-03-18T13:24:40.240Z,1.00
2023-03-18T13:25:48.707Z,2.00
2023-03-18T13:27:04.576Z,2.00
2023-03-18T13:28:22.890Z,2.00
2023-03-18T13:29:29.372Z,2.00
2023-03-18T13:30:35.512Z,1.25
2023-03-18T13:31:43.817Z,2.00
2023-03-18T13:32:57.784Z,1.75
2023-03-18T13:34:33.579Z,2.00
2023-03-18T13:35:52.989Z,1.00
2023-03-18T13:37:22.620Z,2.00
2023-03-18T13:38:46.644Z,1.00
2023-03-18T13:39:54.181Z,1.00
2023-03-18T13:41:04.345Z,2.00
2023-03-18T13:42:21.583Z,2.00
2023-03-18T13:43:24.402Z,2.00
2023-03-18T13:44:36.346Z,3.00
2023-03-18T13:45:39.698Z,2.00
2023-03-18T13:46:42.096Z,2.50
2023-03-18T13:47:45.211Z,2.00
2023-03-18T13:48:48.116Z,2.00
2023-03-18T13:49:51.027Z,1.75
2023-03-18T13:50:55.070Z,2.00
2023-03-18T13:51:57.406Z,2.00
2023-03-18T13:53:01.497Z,1.50
2023-03-18T13:54:05.667Z,2.00
2023-03-18T13:55:13.773Z,1.75
2023-03-18T13:56:27.874Z,1.75
2023-03-18T13:57:34.782Z,2.00
2023-03-18T13:58:44.797Z,2.00
2023-03-18T13:59:48.434Z,2.00
2023-03-18T14:01:15.240Z,1.75
2023-03-18T14:02:45.446Z,1.00
2023-03-18T14:03:54.179Z,1.75
2023-03-18T14:04:58.315Z,1.50
2023-03-18T14:06:23.750Z,2.00
2023-03-18T14:07:26.435Z,1.25
2023-03-18T14:08:47.122Z,1.25
2023-03-18T14:09:57.089Z,2.00
2023-03-18T14:11:51.136Z,3.00
2023-03-18T14:12:53.796Z,2.25
2023-03-18T14:13:57.130Z,2.75
2023-03-18T14:15:05.806Z,2.75
2023-03-18T14:16:10.243Z,1.00
2023-03-18T14:17:17.047Z,2.00
2023-03-18T14:18:28.018Z,2.75
2023-03-18T14:19:32.546Z,3.00